YMAY

Details ICAO YMAY (ABX)
Name Albury
Region Australia
Timezone Australia/Sydney (UTC+11.0)
Plans Departing 183
Arriving 237
Stats Elevation 539 ft / 164 m (AMSL)
Location -36.066800° 146.959000°
Runways 1
Magnetic Variation 11.843° E
Sunrise 2021-01-25 19:23:57 UTC / 2021-01-26 06:23:57 Local
Sunset 2021-01-26 09:27:39 UTC / 2021-01-26 20:27:39 Local
Advertisement - Login to hide

Runways

ID Width Length Bearing (true/mag) Surface Threshold Overrun Markings Lighting
07 98 ft / 30 m 6,239 ft / 1,902 m 81.14° / 69.30° ASPHALT 0 ft / 0 m 0 ft / 0 m PREC-APP CENTERLINE EDGE THRESHOLD TDZ
25 98 ft / 30 m 6,239 ft / 1,902 m 261.13° / 249.29° ASPHALT 0 ft / 0 m 0 ft / 0 m PREC-APP CENTERLINE EDGE THRESHOLD TDZ REIL-OMNI

Map

Weather


0- 5 10 15 20 25 30 35+ Temperature / °C

Clouds and Precipitation
Forecast for 2021-01-26 06:00 UTC. Updated 2 hours ago

Ground ~20,000 ft ~40,000 ft Winds

METAR

YMAY 260500Z AUTO 29011KT 9999 // SCT023 SCT031 SCT041 28/23 Q1001

TAF

Not found

Frequencies

Recorded 115.60 MHz Albury ATIS
Ground 121.80 MHz Albury Ground
Unicom 123.25 MHz Albury Unicom
Tower 123.25 MHz Albury Tower
Warning: Do not use this data for real-world aviation or navigation. No guarantee of current accuracy is given.